Angon — CQPQ — position and weather

sailwx.info

Track history (hours):
 
Tides and Currents Weather Stations Pressure Air Temp Water Temp Dewpoint Dewpoint Depression Visibility Wind Speed Wind Dir Waves Ship Positions

Angon

Last reported at 2017-Dec-10 23:53 UTC. Time now 2017-Dec-11 00:27 UTC.
Position N 41°11' W 008°41'.

Length 89 m; draft 4 m.

Type: Cargo ship. MMSI: 255802380.

Date/timePositionNaut miles runAvg speedWind from/ knotsBaromVisibWave heightAir tempDewpointWater temp
2017-Dec-10 23:53N 41°11' W 008°41'0 0.0
2017-Dec-10 23:29N 41°11' W 008°41'0 0.0
2017-Dec-10 22:56N 41°11' W 008°41'0 0.0
2017-Dec-10 22:29N 41°11' W 008°41'0 0.0
2017-Dec-10 21:59N 41°11' W 008°41'0 0.0
2017-Dec-10 21:29N 41°11' W 008°41'0 0.0
2017-Dec-10 20:59N 41°11' W 008°41'0 0.0
2017-Dec-10 20:29N 41°11' W 008°41'0 0.0
2017-Dec-10 19:53N 41°11' W 008°41'0 0.0
2017-Dec-10 19:29N 41°11' W 008°41'0 0.0
2017-Dec-10 18:59N 41°11' W 008°41'0 0.0
2017-Dec-10 18:26N 41°11' W 008°41'0 0.0
2017-Dec-10 17:59N 41°11' W 008°41'0 0.0
2017-Dec-10 17:29N 41°11' W 008°41'0 0.0
2017-Dec-10 16:59N 41°11' W 008°41'0 0.0
2017-Dec-10 16:29N 41°11' W 008°41'0 0.0
2017-Dec-10 15:59N 41°11' W 008°41'0 0.0
2017-Dec-10 15:29N 41°11' W 008°41'0 0.0
2017-Dec-10 14:59N 41°11' W 008°41'0 0.0
2017-Dec-10 14:23N 41°11' W 008°41'0 0.0
2017-Dec-10 13:59N 41°11' W 008°41'0 0.0
2017-Dec-10 13:29N 41°11' W 008°41'0 0.0
2017-Dec-10 12:59N 41°11' W 008°41'0 0.0
2017-Dec-10 12:29N 41°11' W 008°41'0 0.0
2017-Dec-10 11:59N 41°11' W 008°41'0 0.0
2017-Dec-10 11:29N 41°11' W 008°41'0 0.0
2017-Dec-10 10:59N 41°11' W 008°41'0 0.0
2017-Dec-10 10:29N 41°11' W 008°41'0 0.0
2017-Dec-10 09:59N 41°11' W 008°41'0 0.0
2017-Dec-10 09:29N 41°11' W 008°41'0 0.0
2017-Dec-10 08:59N 41°11' W 008°41'0 0.0
2017-Dec-10 08:29N 41°11' W 008°41'0 0.0
2017-Dec-10 08:00N 41°11' W 008°41'1 2.8
2017-Dec-10 07:30N 41°10' W 008°42'4 7.9
2017-Dec-10 07:00N 41°13' W 008°47'417 8.0
2017-Dec-08 03:14N 47°46' W 005°35'2 7.7
2017-Dec-08 02:58N 47°48' W 005°34'6 9.4
2017-Dec-08 02:23N 47°52' W 005°29'2 6.2
2017-Dec-08 02:00N 47°54' W 005°27'4 8.7
2017-Dec-08 01:30N 47°58' W 005°23'5 9.2
2017-Dec-08 01:01N 48°01' W 005°19'5 9.5
2017-Dec-08 00:30N 48°05' W 005°14'4 8.9
2017-Dec-08 00:00N 48°07' W 005°08'4 8.8
2017-Dec-07 23:30N 48°10' W 005°03'4 8.4
2017-Dec-07 23:00N 48°12' W 004°57'4 8.5
2017-Dec-07 22:30N 48°14' W 004°52'4 8.9
2017-Dec-07 22:00N 48°16' W 004°46'5 9.2
2017-Dec-07 21:30N 48°19' W 004°40'611.2
2017-Dec-07 21:00N 48°21' W 004°33'4 8.4
2017-Dec-07 20:30N 48°23' W 004°27'0 0.1
2017-Dec-07 20:00N 48°23' W 004°27'0 0.0
2017-Dec-07 19:30N 48°23' W 004°27'0 0.0
2017-Dec-07 19:00N 48°23' W 004°27'0 0.0
2017-Dec-07 18:30N 48°23' W 004°27'0 0.0
2017-Dec-07 18:00N 48°23' W 004°27'0 0.0
2017-Dec-07 17:30N 48°23' W 004°27'0 0.0
2017-Dec-07 17:00N 48°23' W 004°27'0 0.0
2017-Dec-07 16:30N 48°23' W 004°27'0 0.0
2017-Dec-07 16:00N 48°23' W 004°27'0 0.0
2017-Dec-07 15:30N 48°23' W 004°27'0 0.0
2017-Dec-07 15:00N 48°23' W 004°27'0 0.0
2017-Dec-07 14:30N 48°23' W 004°27'0 0.0
2017-Dec-07 14:00N 48°23' W 004°27'0 0.0
2017-Dec-07 13:30N 48°23' W 004°27'0 0.0
2017-Dec-07 13:00N 48°23' W 004°27'0 0.0
2017-Dec-07 12:30N 48°23' W 004°27'0 0.0
2017-Dec-07 12:00N 48°23' W 004°27'0 0.0
2017-Dec-07 11:30N 48°23' W 004°27'0 0.0
2017-Dec-07 11:00N 48°23' W 004°27'0 0.0
2017-Dec-07 10:30N 48°23' W 004°27'0 0.0
2017-Dec-07 10:00N 48°23' W 004°27'0 0.0
2017-Dec-07 09:30N 48°23' W 004°27'0 0.0
2017-Dec-07 09:00N 48°23' W 004°27'0 0.0
2017-Dec-07 08:30N 48°23' W 004°27'0 0.0
2017-Dec-07 08:00N 48°23' W 004°27'0 0.0
2017-Dec-07 07:30N 48°23' W 004°27'0 0.0
2017-Dec-07 07:00N 48°23' W 004°27'0 0.0
2017-Dec-07 06:30N 48°23' W 004°27'0 0.0
2017-Dec-07 06:00N 48°23' W 004°27'0 0.0
2017-Dec-07 05:30N 48°23' W 004°27'0 0.0
2017-Dec-07 05:00N 48°23' W 004°27'0 0.0
2017-Dec-07 04:30N 48°23' W 004°27'0 0.0
2017-Dec-07 04:00N 48°23' W 004°27'0 0.0
2017-Dec-07 03:30N 48°23' W 004°27'0 0.0
2017-Dec-07 03:00N 48°23' W 004°27'0 0.0
2017-Dec-07 02:30N 48°23' W 004°27'0 0.0
2017-Dec-07 02:00N 48°23' W 004°27'0 0.0
2017-Dec-07 01:30N 48°23' W 004°27'0 0.0
2017-Dec-07 01:00N 48°23' W 004°27'0 0.0
2017-Dec-07 00:30N 48°23' W 004°27'0 0.0
2017-Dec-07 00:00N 48°23' W 004°27'0 0.0
2017-Dec-06 23:30N 48°23' W 004°27'0 0.0
2017-Dec-06 23:00N 48°23' W 004°27'0 0.0
2017-Dec-06 22:30N 48°23' W 004°27'0 0.0
2017-Dec-06 22:00N 48°23' W 004°27'0 0.0
2017-Dec-06 21:30N 48°23' W 004°27'0 0.0
2017-Dec-06 21:00N 48°23' W 004°27'  
2017-Dec-04 09:49N 47°17' W 002°12'0 0.0
2017-Dec-04 09:22N 47°17' W 002°12'0 0.0
2017-Dec-04 08:34N 47°17' W 002°12'0 0.0
2017-Dec-04 08:28N 47°17' W 002°12'  
2017-Dec-01 22:37N 47°17' W 002°12'0 0.0
2017-Dec-01 20:25N 47°17' W 002°12'0 0.0
2017-Dec-01 19:31N 47°17' W 002°12'0 0.0
2017-Dec-01 19:13N 47°17' W 002°12'0 0.0
2017-Dec-01 18:46N 47°17' W 002°12'0 0.0
2017-Dec-01 18:25N 47°17' W 002°12'0 0.0
2017-Dec-01 15:25N 47°17' W 002°12'0 0.0
2017-Dec-01 14:31N 47°17' W 002°12'0 0.0
2017-Dec-01 14:19N 47°17' W 002°12'0 0.0
2017-Dec-01 07:19N 47°17' W 002°12'0 0.0
2017-Dec-01 06:55N 47°17' W 002°12'0 0.0
2017-Dec-01 02:52N 47°17' W 002°12'0 0.3
2017-Dec-01 02:29N 47°17' W 002°12'1 1.8
2017-Dec-01 01:59N 47°16' W 002°12'1 2.6
2017-Dec-01 01:30N 47°15' W 002°13'510.3
2017-Dec-01 01:00N 47°11' W 002°18'5 8.8
2017-Dec-01 00:27N 47°07' W 002°22'4 8.5
2017-Dec-01 00:00N 47°05' W 002°26'  
Track history (hours):
 
Tides and Currents Weather Stations Pressure Air Temp Water Temp Dewpoint Dewpoint Depression Visibility Wind Speed Wind Dir Waves Ship Positions

Angon

Last reported at 2017-Dec-10 23:53 UTC. Time now 2017-Dec-11 00:27 UTC.
Position N 41°11' W 008°41'.

Length 89 m; draft 4 m.

Type: Cargo ship. MMSI: 255802380.

Date/timePositionNaut miles runAvg speedWind from/ knotsBaromVisibWave heightAir tempDewpointWater temp
2017-Dec-10 23:53N 41°11' W 008°41'0 0.0
2017-Dec-10 23:29N 41°11' W 008°41'0 0.0
2017-Dec-10 22:56N 41°11' W 008°41'0 0.0
2017-Dec-10 22:29N 41°11' W 008°41'0 0.0
2017-Dec-10 21:59N 41°11' W 008°41'0 0.0
2017-Dec-10 21:29N 41°11' W 008°41'0 0.0
2017-Dec-10 20:59N 41°11' W 008°41'0 0.0
2017-Dec-10 20:29N 41°11' W 008°41'0 0.0
2017-Dec-10 19:53N 41°11' W 008°41'0 0.0
2017-Dec-10 19:29N 41°11' W 008°41'0 0.0
2017-Dec-10 18:59N 41°11' W 008°41'0 0.0
2017-Dec-10 18:26N 41°11' W 008°41'0 0.0
2017-Dec-10 17:59N 41°11' W 008°41'0 0.0
2017-Dec-10 17:29N 41°11' W 008°41'0 0.0
2017-Dec-10 16:59N 41°11' W 008°41'0 0.0
2017-Dec-10 16:29N 41°11' W 008°41'0 0.0
2017-Dec-10 15:59N 41°11' W 008°41'0 0.0
2017-Dec-10 15:29N 41°11' W 008°41'0 0.0
2017-Dec-10 14:59N 41°11' W 008°41'0 0.0
2017-Dec-10 14:23N 41°11' W 008°41'0 0.0
2017-Dec-10 13:59N 41°11' W 008°41'0 0.0
2017-Dec-10 13:29N 41°11' W 008°41'0 0.0
2017-Dec-10 12:59N 41°11' W 008°41'0 0.0
2017-Dec-10 12:29N 41°11' W 008°41'0 0.0
2017-Dec-10 11:59N 41°11' W 008°41'0 0.0
2017-Dec-10 11:29N 41°11' W 008°41'0 0.0
2017-Dec-10 10:59N 41°11' W 008°41'0 0.0
2017-Dec-10 10:29N 41°11' W 008°41'0 0.0
2017-Dec-10 09:59N 41°11' W 008°41'0 0.0
2017-Dec-10 09:29N 41°11' W 008°41'0 0.0
2017-Dec-10 08:59N 41°11' W 008°41'0 0.0
2017-Dec-10 08:29N 41°11' W 008°41'0 0.0
2017-Dec-10 08:00N 41°11' W 008°41'1 2.8
2017-Dec-10 07:30N 41°10' W 008°42'4 7.9
2017-Dec-10 07:00N 41°13' W 008°47'417 8.0
2017-Dec-08 03:14N 47°46' W 005°35'2 7.7
2017-Dec-08 02:58N 47°48' W 005°34'6 9.4
2017-Dec-08 02:23N 47°52' W 005°29'2 6.2
2017-Dec-08 02:00N 47°54' W 005°27'4 8.7
2017-Dec-08 01:30N 47°58' W 005°23'5 9.2
2017-Dec-08 01:01N 48°01' W 005°19'5 9.5
2017-Dec-08 00:30N 48°05' W 005°14'4 8.9
2017-Dec-08 00:00N 48°07' W 005°08'4 8.8
2017-Dec-07 23:30N 48°10' W 005°03'4 8.4
2017-Dec-07 23:00N 48°12' W 004°57'4 8.5
2017-Dec-07 22:30N 48°14' W 004°52'4 8.9
2017-Dec-07 22:00N 48°16' W 004°46'5 9.2
2017-Dec-07 21:30N 48°19' W 004°40'611.2
2017-Dec-07 21:00N 48°21' W 004°33'4 8.4
2017-Dec-07 20:30N 48°23' W 004°27'0 0.1
2017-Dec-07 20:00N 48°23' W 004°27'0 0.0
2017-Dec-07 19:30N 48°23' W 004°27'0 0.0
2017-Dec-07 19:00N 48°23' W 004°27'0 0.0
2017-Dec-07 18:30N 48°23' W 004°27'0 0.0
2017-Dec-07 18:00N 48°23' W 004°27'0 0.0
2017-Dec-07 17:30N 48°23' W 004°27'0 0.0
2017-Dec-07 17:00N 48°23' W 004°27'0 0.0
2017-Dec-07 16:30N 48°23' W 004°27'0 0.0
2017-Dec-07 16:00N 48°23' W 004°27'0 0.0
2017-Dec-07 15:30N 48°23' W 004°27'0 0.0
2017-Dec-07 15:00N 48°23' W 004°27'0 0.0
2017-Dec-07 14:30N 48°23' W 004°27'0 0.0
2017-Dec-07 14:00N 48°23' W 004°27'0 0.0
2017-Dec-07 13:30N 48°23' W 004°27'0 0.0
2017-Dec-07 13:00N 48°23' W 004°27'0 0.0
2017-Dec-07 12:30N 48°23' W 004°27'0 0.0
2017-Dec-07 12:00N 48°23' W 004°27'0 0.0
2017-Dec-07 11:30N 48°23' W 004°27'0 0.0
2017-Dec-07 11:00N 48°23' W 004°27'0 0.0
2017-Dec-07 10:30N 48°23' W 004°27'0 0.0
2017-Dec-07 10:00N 48°23' W 004°27'0 0.0
2017-Dec-07 09:30N 48°23' W 004°27'0 0.0
2017-Dec-07 09:00N 48°23' W 004°27'0 0.0
2017-Dec-07 08:30N 48°23' W 004°27'0 0.0
2017-Dec-07 08:00N 48°23' W 004°27'0 0.0
2017-Dec-07 07:30N 48°23' W 004°27'0 0.0
2017-Dec-07 07:00N 48°23' W 004°27'0 0.0
2017-Dec-07 06:30N 48°23' W 004°27'0 0.0
2017-Dec-07 06:00N 48°23' W 004°27'0 0.0
2017-Dec-07 05:30N 48°23' W 004°27'0 0.0
2017-Dec-07 05:00N 48°23' W 004°27'0 0.0
2017-Dec-07 04:30N 48°23' W 004°27'0 0.0
2017-Dec-07 04:00N 48°23' W 004°27'0 0.0
2017-Dec-07 03:30N 48°23' W 004°27'0 0.0
2017-Dec-07 03:00N 48°23' W 004°27'0 0.0
2017-Dec-07 02:30N 48°23' W 004°27'0 0.0
2017-Dec-07 02:00N 48°23' W 004°27'0 0.0
2017-Dec-07 01:30N 48°23' W 004°27'0 0.0
2017-Dec-07 01:00N 48°23' W 004°27'0 0.0
2017-Dec-07 00:30N 48°23' W 004°27'0 0.0
2017-Dec-07 00:00N 48°23' W 004°27'0 0.0
2017-Dec-06 23:30N 48°23' W 004°27'0 0.0
2017-Dec-06 23:00N 48°23' W 004°27'0 0.0
2017-Dec-06 22:30N 48°23' W 004°27'0 0.0
2017-Dec-06 22:00N 48°23' W 004°27'0 0.0
2017-Dec-06 21:30N 48°23' W 004°27'0 0.0
2017-Dec-06 21:00N 48°23' W 004°27'  
2017-Dec-04 09:49N 47°17' W 002°12'0 0.0
2017-Dec-04 09:22N 47°17' W 002°12'0 0.0
2017-Dec-04 08:34N 47°17' W 002°12'0 0.0
2017-Dec-04 08:28N 47°17' W 002°12'  
2017-Dec-01 22:37N 47°17' W 002°12'0 0.0
2017-Dec-01 20:25N 47°17' W 002°12'0 0.0
2017-Dec-01 19:31N 47°17' W 002°12'0 0.0
2017-Dec-01 19:13N 47°17' W 002°12'0 0.0
2017-Dec-01 18:46N 47°17' W 002°12'0 0.0
2017-Dec-01 18:25N 47°17' W 002°12'0 0.0
2017-Dec-01 15:25N 47°17' W 002°12'0 0.0
2017-Dec-01 14:31N 47°17' W 002°12'0 0.0
2017-Dec-01 14:19N 47°17' W 002°12'0 0.0
2017-Dec-01 07:19N 47°17' W 002°12'0 0.0
2017-Dec-01 06:55N 47°17' W 002°12'0 0.0
2017-Dec-01 02:52N 47°17' W 002°12'0 0.3
2017-Dec-01 02:29N 47°17' W 002°12'1 1.8
2017-Dec-01 01:59N 47°16' W 002°12'1 2.6
2017-Dec-01 01:30N 47°15' W 002°13'510.3
2017-Dec-01 01:00N 47°11' W 002°18'5 8.8
2017-Dec-01 00:27N 47°07' W 002°22'4 8.5
2017-Dec-01 00:00N 47°05' W 002°26'  

Dump ship's entire track history